KLM1632 KFLL-TXKF
Flight info
| Callsign | KLM1632 |
|---|---|
| Flight time | 1h 59m |
| Altitude | 35000 |
| Route | FEALX2 ZFP DCT CNNOR/M080F350 M328 ANTIG POPOP1 |
| Aircraft | B738/M-SDE2E3FGHIRWXY/LB1 |
Departure
| Time | 2026-04-23 12:15 |
|---|---|
| Airport | Fort Lauderdale Hollywood International Airport (KFLL) |
Arrival
| Time | 2026-04-23 14:14 |
|---|---|
| Airport | L.F. Wade International Airport (TXKF) |
| Time | Latitude | Longitude | Altitude | Speed | Heading |
|---|---|---|---|---|---|
| 2026-04-23 11:54 | 26.07145 | -80.14689 | 24 ft | 0 kts | 180° |
| 2026-04-23 12:03 | 26.07168 | -80.14689 | 23 ft | 4 kts | 185° |
| 2026-04-23 12:03 | 26.07191 | -80.14681 | 22 ft | 4 kts | 232° |
| 2026-04-23 12:04 | 26.07200 | -80.14656 | 22 ft | 4 kts | 270° |
| 2026-04-23 12:04 | 26.07199 | -80.14641 | 22 ft | 1 kts | 279° |
| 2026-04-23 12:04 | 26.07199 | -80.14637 | 22 ft | 0 kts | 279° |
| 2026-04-23 12:06 | 26.07200 | -80.14648 | 22 ft | 4 kts | 280° |
| 2026-04-23 12:07 | 26.07210 | -80.14692 | 22 ft | 8 kts | 286° |
| 2026-04-23 12:07 | 26.07238 | -80.14762 | 21 ft | 12 kts | 297° |
| 2026-04-23 12:07 | 26.07271 | -80.14826 | 21 ft | 9 kts | 308° |
| 2026-04-23 12:07 | 26.07319 | -80.14850 | 19 ft | 9 kts | 351° |
| 2026-04-23 12:08 | 26.07360 | -80.14867 | 18 ft | 8 kts | 314° |
| 2026-04-23 12:08 | 26.07393 | -80.14933 | 17 ft | 11 kts | 305° |
| 2026-04-23 12:08 | 26.07446 | -80.14995 | 16 ft | 12 kts | 315° |
| 2026-04-23 12:08 | 26.07503 | -80.15057 | 15 ft | 12 kts | 316° |
| 2026-04-23 12:09 | 26.07553 | -80.15121 | 13 ft | 12 kts | 297° |
| 2026-04-23 12:09 | 26.07565 | -80.15235 | 12 ft | 18 kts | 270° |
| 2026-04-23 12:09 | 26.07566 | -80.15367 | 12 ft | 16 kts | 269° |
| 2026-04-23 12:09 | 26.07566 | -80.15495 | 12 ft | 17 kts | 270° |
| 2026-04-23 12:10 | 26.07567 | -80.15632 | 13 ft | 18 kts | 271° |
| 2026-04-23 12:10 | 26.07568 | -80.15775 | 16 ft | 18 kts | 270° |
| 2026-04-23 12:10 | 26.07569 | -80.15909 | 18 ft | 18 kts | 270° |
| 2026-04-23 12:10 | 26.07569 | -80.16046 | 19 ft | 19 kts | 271° |
| 2026-04-23 12:11 | 26.07570 | -80.16193 | 20 ft | 19 kts | 270° |
| 2026-04-23 12:11 | 26.07572 | -80.16327 | 22 ft | 14 kts | 270° |
| 2026-04-23 12:11 | 26.07572 | -80.16435 | 21 ft | 11 kts | 269° |
| 2026-04-23 12:11 | 26.07573 | -80.16512 | 19 ft | 7 kts | 275° |
| 2026-04-23 12:12 | 26.07588 | -80.16546 | 18 ft | 1 kts | 315° |
| 2026-04-23 12:12 | 26.07588 | -80.16547 | 18 ft | 0 kts | 315° |
| 2026-04-23 12:13 | 26.07593 | -80.16551 | 20 ft | 4 kts | 320° |
| 2026-04-23 12:13 | 26.07641 | -80.16566 | 17 ft | 10 kts | 358° |
| 2026-04-23 12:14 | 26.07688 | -80.16531 | 18 ft | 9 kts | 68° |
| 2026-04-23 12:14 | 26.07693 | -80.16375 | 25 ft | 42 kts | 90° |
| 2026-04-23 12:14 | 26.07689 | -80.15831 | 18 ft | 97 kts | 91° |
| 2026-04-23 12:14 | 26.07685 | -80.14893 | 19 ft | 145 kts | 90° |
| 2026-04-23 12:15 | 26.07674 | -80.13676 | 398 ft | 163 kts | 91° |
| 2026-04-23 12:15 | 26.07655 | -80.12398 | 937 ft | 174 kts | 91° |
| 2026-04-23 12:15 | 26.07622 | -80.10979 | 1416 ft | 193 kts | 91° |
| 2026-04-23 12:15 | 26.07593 | -80.09421 | 1942 ft | 209 kts | 90° |
| 2026-04-23 12:16 | 26.07559 | -80.07769 | 2648 ft | 217 kts | 91° |
| 2026-04-23 12:16 | 26.07576 | -80.06066 | 3130 ft | 226 kts | 89° |
| 2026-04-23 12:16 | 26.07682 | -80.04191 | 3266 ft | 258 kts | 88° |
| 2026-04-23 12:16 | 26.07778 | -80.02145 | 3910 ft | 268 kts | 88° |
| 2026-04-23 12:17 | 26.08126 | -80.00115 | 4875 ft | 267 kts | 72° |
| 2026-04-23 12:17 | 26.08909 | -79.98414 | 5940 ft | 259 kts | 58° |
| 2026-04-23 12:17 | 26.10010 | -79.96806 | 6870 ft | 258 kts | 53° |
| 2026-04-23 12:17 | 26.11158 | -79.95229 | 7479 ft | 268 kts | 54° |
| 2026-04-23 12:18 | 26.12320 | -79.93526 | 7909 ft | 285 kts | 55° |
| 2026-04-23 12:18 | 26.13530 | -79.91729 | 8514 ft | 291 kts | 54° |
| 2026-04-23 12:18 | 26.14750 | -79.89983 | 9420 ft | 286 kts | 52° |
| 2026-04-23 12:18 | 26.15976 | -79.88248 | 10219 ft | 286 kts | 53° |
| 2026-04-23 12:19 | 26.17161 | -79.86428 | 10724 ft | 296 kts | 55° |
| 2026-04-23 12:19 | 26.18372 | -79.84497 | 11017 ft | 313 kts | 55° |
| 2026-04-23 12:19 | 26.19673 | -79.82464 | 11215 ft | 332 kts | 54° |
| 2026-04-23 12:19 | 26.21065 | -79.80323 | 11390 ft | 350 kts | 53° |
| 2026-04-23 12:20 | 26.22518 | -79.78084 | 11747 ft | 361 kts | 53° |
| 2026-04-23 12:20 | 26.24000 | -79.75794 | 12310 ft | 365 kts | 53° |
| 2026-04-23 12:20 | 26.25499 | -79.73495 | 12882 ft | 369 kts | 52° |
| 2026-04-23 12:20 | 26.27028 | -79.71173 | 13396 ft | 374 kts | 52° |
| 2026-04-23 12:21 | 26.28589 | -79.68837 | 13912 ft | 378 kts | 52° |
| 2026-04-23 12:21 | 26.30113 | -79.66429 | 14396 ft | 383 kts | 57° |
| 2026-04-23 12:21 | 26.31355 | -79.63826 | 14872 ft | 388 kts | 64° |
| 2026-04-23 12:21 | 26.32392 | -79.61028 | 15343 ft | 393 kts | 69° |
| 2026-04-23 12:22 | 26.33345 | -79.58143 | 15785 ft | 398 kts | 69° |
| 2026-04-23 12:22 | 26.34315 | -79.55242 | 16225 ft | 402 kts | 68° |
| 2026-04-23 12:22 | 26.35337 | -79.52329 | 16649 ft | 406 kts | 67° |
| 2026-04-23 12:22 | 26.36364 | -79.49373 | 17064 ft | 410 kts | 70° |
| 2026-04-23 12:23 | 26.37227 | -79.46329 | 17468 ft | 414 kts | 73° |
| 2026-04-23 12:23 | 26.37960 | -79.43211 | 17857 ft | 418 kts | 75° |
| 2026-04-23 12:23 | 26.38672 | -79.40048 | 18240 ft | 422 kts | 75° |
| 2026-04-23 12:23 | 26.39404 | -79.36866 | 18647 ft | 424 kts | 75° |
| 2026-04-23 12:24 | 26.40152 | -79.33672 | 19043 ft | 427 kts | 75° |
| 2026-04-23 12:24 | 26.40899 | -79.30478 | 19414 ft | 430 kts | 75° |
| 2026-04-23 12:24 | 26.41651 | -79.27247 | 19782 ft | 432 kts | 75° |
| 2026-04-23 12:24 | 26.42409 | -79.23989 | 20140 ft | 435 kts | 75° |
| 2026-04-23 12:25 | 26.43174 | -79.20715 | 20505 ft | 437 kts | 75° |
| 2026-04-23 12:25 | 26.43941 | -79.17417 | 20823 ft | 440 kts | 74° |
| 2026-04-23 12:25 | 26.44710 | -79.14146 | 21145 ft | 442 kts | 74° |
| 2026-04-23 12:25 | 26.45508 | -79.10817 | 21482 ft | 444 kts | 74° |
| 2026-04-23 12:26 | 26.46323 | -79.07470 | 21788 ft | 447 kts | 73° |
| 2026-04-23 12:26 | 26.47141 | -79.04117 | 22091 ft | 449 kts | 73° |
| 2026-04-23 12:26 | 26.47960 | -79.00738 | 22378 ft | 452 kts | 73° |
| 2026-04-23 12:26 | 26.48786 | -78.97338 | 22665 ft | 454 kts | 73° |
| 2026-04-23 12:27 | 26.49605 | -78.93976 | 22954 ft | 456 kts | 73° |
| 2026-04-23 12:27 | 26.50439 | -78.90538 | 23211 ft | 458 kts | 73° |
| 2026-04-23 12:27 | 26.51271 | -78.87092 | 23479 ft | 460 kts | 73° |
| 2026-04-23 12:27 | 26.52095 | -78.83626 | 23749 ft | 462 kts | 73° |
| 2026-04-23 12:28 | 26.52927 | -78.80143 | 23975 ft | 465 kts | 73° |
| 2026-04-23 12:28 | 26.53775 | -78.76649 | 24205 ft | 467 kts | 73° |
| 2026-04-23 12:28 | 26.54633 | -78.73183 | 24445 ft | 469 kts | 73° |
| 2026-04-23 12:28 | 26.55538 | -78.69669 | 24665 ft | 471 kts | 71° |
| 2026-04-23 12:29 | 26.56555 | -78.66177 | 24889 ft | 472 kts | 69° |
| 2026-04-23 12:29 | 26.57672 | -78.62716 | 25115 ft | 474 kts | 68° |
| 2026-04-23 12:29 | 26.58823 | -78.59249 | 25328 ft | 475 kts | 68° |
| 2026-04-23 12:29 | 26.59957 | -78.55817 | 25522 ft | 478 kts | 68° |
| 2026-04-23 12:30 | 26.61098 | -78.52320 | 25717 ft | 480 kts | 68° |
| 2026-04-23 12:30 | 26.62238 | -78.48809 | 25911 ft | 482 kts | 68° |
| 2026-04-23 12:30 | 26.63387 | -78.45285 | 26107 ft | 483 kts | 68° |
| 2026-04-23 12:30 | 26.64541 | -78.41747 | 26294 ft | 485 kts | 68° |
| 2026-04-23 12:31 | 26.65704 | -78.38182 | 26504 ft | 487 kts | 68° |
| 2026-04-23 12:31 | 26.66853 | -78.34662 | 26680 ft | 488 kts | 68° |
| 2026-04-23 12:31 | 26.68019 | -78.31088 | 26888 ft | 490 kts | 68° |
| 2026-04-23 12:31 | 26.69189 | -78.27503 | 27058 ft | 491 kts | 68° |
| 2026-04-23 12:32 | 26.70365 | -78.23907 | 27211 ft | 493 kts | 68° |
| 2026-04-23 12:32 | 26.71548 | -78.20303 | 27389 ft | 494 kts | 68° |
| 2026-04-23 12:32 | 26.72677 | -78.16859 | 27523 ft | 496 kts | 68° |
| 2026-04-23 12:32 | 26.73865 | -78.13230 | 27677 ft | 498 kts | 68° |
| 2026-04-23 12:33 | 26.75061 | -78.09580 | 27830 ft | 499 kts | 68° |
| 2026-04-23 12:33 | 26.76256 | -78.05929 | 27981 ft | 501 kts | 68° |
| 2026-04-23 12:33 | 26.77440 | -78.02300 | 28115 ft | 502 kts | 68° |
| 2026-04-23 12:33 | 26.78640 | -77.98622 | 28284 ft | 503 kts | 68° |
| 2026-04-23 12:34 | 26.79844 | -77.94933 | 28400 ft | 505 kts | 68° |
| 2026-04-23 12:34 | 26.81061 | -77.91218 | 28498 ft | 507 kts | 68° |
| 2026-04-23 12:34 | 26.82282 | -77.87496 | 28631 ft | 509 kts | 68° |
| 2026-04-23 12:34 | 26.83506 | -77.83774 | 28776 ft | 510 kts | 68° |
| 2026-04-23 12:35 | 26.84733 | -77.80035 | 28903 ft | 512 kts | 68° |
| 2026-04-23 12:35 | 26.85962 | -77.76281 | 29046 ft | 512 kts | 68° |
| 2026-04-23 12:35 | 26.87172 | -77.72588 | 29260 ft | 512 kts | 68° |
| 2026-04-23 12:35 | 26.88398 | -77.68847 | 29452 ft | 511 kts | 68° |
| 2026-04-23 12:36 | 26.89621 | -77.65104 | 29626 ft | 511 kts | 68° |
| 2026-04-23 12:36 | 26.90848 | -77.61351 | 29753 ft | 513 kts | 68° |
| 2026-04-23 12:36 | 26.92074 | -77.57598 | 29929 ft | 512 kts | 68° |
| 2026-04-23 12:36 | 26.93299 | -77.53844 | 30096 ft | 512 kts | 68° |
| 2026-04-23 12:37 | 26.94529 | -77.50081 | 30272 ft | 512 kts | 68° |
| 2026-04-23 12:37 | 26.95744 | -77.46381 | 30404 ft | 513 kts | 68° |
| 2026-04-23 12:37 | 26.96977 | -77.42623 | 30516 ft | 514 kts | 68° |
| 2026-04-23 12:37 | 26.98208 | -77.38864 | 30689 ft | 514 kts | 68° |
| 2026-04-23 12:38 | 26.99441 | -77.35103 | 30842 ft | 514 kts | 68° |
| 2026-04-23 12:38 | 27.00677 | -77.31333 | 31013 ft | 513 kts | 68° |
| 2026-04-23 12:38 | 27.01913 | -77.27573 | 31134 ft | 514 kts | 68° |
| 2026-04-23 12:38 | 27.03156 | -77.23798 | 31254 ft | 515 kts | 68° |
| 2026-04-23 12:39 | 27.04400 | -77.20019 | 31421 ft | 515 kts | 68° |
| 2026-04-23 12:39 | 27.05637 | -77.16250 | 31570 ft | 516 kts | 68° |
| 2026-04-23 12:39 | 27.06865 | -77.12504 | 31723 ft | 516 kts | 68° |
| 2026-04-23 12:39 | 27.08100 | -77.08724 | 31871 ft | 516 kts | 68° |
| 2026-04-23 12:40 | 27.09338 | -77.04931 | 32006 ft | 516 kts | 68° |
| 2026-04-23 12:40 | 27.10574 | -77.01144 | 32141 ft | 517 kts | 68° |
| 2026-04-23 12:40 | 27.11810 | -76.97360 | 32304 ft | 516 kts | 68° |
| 2026-04-23 12:40 | 27.13050 | -76.93571 | 32417 ft | 517 kts | 68° |
| 2026-04-23 12:41 | 27.14297 | -76.89776 | 32534 ft | 518 kts | 68° |
| 2026-04-23 12:41 | 27.15545 | -76.85979 | 32682 ft | 518 kts | 68° |
| 2026-04-23 12:41 | 27.16775 | -76.82234 | 32819 ft | 518 kts | 68° |
| 2026-04-23 12:41 | 27.18025 | -76.78433 | 32964 ft | 518 kts | 68° |
| 2026-04-23 12:42 | 27.19278 | -76.74631 | 33097 ft | 518 kts | 68° |
| 2026-04-23 12:42 | 27.20529 | -76.70826 | 33219 ft | 518 kts | 68° |
| 2026-04-23 12:42 | 27.21780 | -76.67025 | 33335 ft | 519 kts | 68° |
| 2026-04-23 12:42 | 27.23032 | -76.63214 | 33469 ft | 519 kts | 68° |
| 2026-04-23 12:43 | 27.24283 | -76.59410 | 33585 ft | 519 kts | 68° |
| 2026-04-23 12:43 | 27.25537 | -76.55598 | 33724 ft | 519 kts | 68° |
| 2026-04-23 12:43 | 27.26781 | -76.51841 | 33844 ft | 519 kts | 67° |
| 2026-04-23 12:43 | 27.28046 | -76.48034 | 33953 ft | 520 kts | 68° |
| 2026-04-23 12:44 | 27.29307 | -76.44225 | 34077 ft | 520 kts | 68° |
| 2026-04-23 12:44 | 27.30565 | -76.40408 | 34234 ft | 519 kts | 68° |
| 2026-04-23 12:44 | 27.31816 | -76.36605 | 34365 ft | 519 kts | 68° |
| 2026-04-23 12:44 | 27.33079 | -76.32771 | 34431 ft | 520 kts | 68° |
| 2026-04-23 12:45 | 27.35602 | -76.25171 | 34592 ft | 523 kts | 67° |
| 2026-04-23 12:45 | 27.38151 | -76.17481 | 34743 ft | 525 kts | 67° |
| 2026-04-23 12:46 | 27.40710 | -76.09765 | 34893 ft | 526 kts | 67° |
| 2026-04-23 12:46 | 27.43218 | -76.02221 | 35050 ft | 527 kts | 67° |
| 2026-04-23 12:47 | 27.44505 | -75.98358 | 35157 ft | 528 kts | 67° |
| 2026-04-23 12:47 | 27.45795 | -75.94475 | 35172 ft | 530 kts | 67° |
| 2026-04-23 12:47 | 27.48378 | -75.86708 | 35180 ft | 534 kts | 67° |
| 2026-04-23 12:48 | 27.50991 | -75.78877 | 35170 ft | 533 kts | 67° |
| 2026-04-23 12:48 | 27.53594 | -75.71075 | 35168 ft | 530 kts | 67° |
| 2026-04-23 12:49 | 27.56197 | -75.63285 | 35168 ft | 531 kts | 67° |
| 2026-04-23 12:49 | 27.58791 | -75.55528 | 35173 ft | 532 kts | 67° |
| 2026-04-23 12:50 | 27.61415 | -75.47692 | 35179 ft | 533 kts | 67° |
| 2026-04-23 12:50 | 27.64024 | -75.39918 | 35178 ft | 533 kts | 67° |
| 2026-04-23 12:51 | 27.66650 | -75.32085 | 35172 ft | 534 kts | 67° |
| 2026-04-23 12:51 | 27.69291 | -75.24224 | 35168 ft | 535 kts | 67° |
| 2026-04-23 12:52 | 27.71935 | -75.16407 | 35169 ft | 535 kts | 66° |
| 2026-04-23 12:52 | 27.74601 | -75.08546 | 35169 ft | 536 kts | 66° |
| 2026-04-23 12:53 | 27.77271 | -75.00679 | 35168 ft | 536 kts | 66° |
| 2026-04-23 12:53 | 27.79961 | -74.92821 | 35169 ft | 536 kts | 66° |
| 2026-04-23 12:54 | 27.82250 | -74.86349 | 35174 ft | 536 kts | 63° |
| 2026-04-23 12:54 | 27.85673 | -74.78922 | 35179 ft | 530 kts | 55° |
| 2026-04-23 12:55 | 27.89640 | -74.71901 | 35179 ft | 528 kts | 52° |
| 2026-04-23 12:55 | 27.93683 | -74.64943 | 35181 ft | 529 kts | 52° |
| 2026-04-23 12:56 | 27.97703 | -74.57955 | 35172 ft | 529 kts | 52° |
| 2026-04-23 12:56 | 28.01707 | -74.51024 | 35171 ft | 528 kts | 52° |
| 2026-04-23 12:57 | 28.05723 | -74.44107 | 35149 ft | 523 kts | 52° |
| 2026-04-23 12:57 | 28.09723 | -74.37230 | 35142 ft | 522 kts | 52° |
| 2026-04-23 12:58 | 28.13747 | -74.30368 | 35141 ft | 524 kts | 52° |
| 2026-04-23 12:58 | 28.17804 | -74.23473 | 35140 ft | 527 kts | 52° |
| 2026-04-23 12:59 | 28.21898 | -74.16565 | 35139 ft | 528 kts | 51° |
| 2026-04-23 12:59 | 28.25977 | -74.09694 | 35141 ft | 529 kts | 53° |
| 2026-04-23 13:00 | 28.29910 | -74.02562 | 35137 ft | 534 kts | 54° |
| 2026-04-23 13:00 | 28.33818 | -73.95386 | 35139 ft | 534 kts | 54° |
| 2026-04-23 13:01 | 28.37720 | -73.88248 | 35137 ft | 533 kts | 54° |
| 2026-04-23 13:01 | 28.41630 | -73.81109 | 35141 ft | 530 kts | 54° |
| 2026-04-23 13:02 | 28.45525 | -73.73995 | 35134 ft | 529 kts | 54° |
| 2026-04-23 13:02 | 28.49407 | -73.66888 | 35134 ft | 528 kts | 54° |
| 2026-04-23 13:03 | 28.53256 | -73.59848 | 35139 ft | 527 kts | 54° |
| 2026-04-23 13:03 | 28.57125 | -73.52766 | 35136 ft | 526 kts | 54° |
| 2026-04-23 13:04 | 28.60979 | -73.45697 | 35138 ft | 524 kts | 54° |
| 2026-04-23 13:04 | 28.64840 | -73.38656 | 35139 ft | 523 kts | 54° |
| 2026-04-23 13:05 | 28.68676 | -73.31632 | 35139 ft | 521 kts | 54° |
| 2026-04-23 13:05 | 28.72482 | -73.24667 | 35137 ft | 520 kts | 54° |
| 2026-04-23 13:06 | 28.78208 | -73.14185 | 35142 ft | 519 kts | 54° |
| 2026-04-23 13:07 | 28.82014 | -73.07196 | 35131 ft | 518 kts | 54° |
| 2026-04-23 13:07 | 28.85803 | -73.00256 | 35125 ft | 517 kts | 54° |
| 2026-04-23 13:08 | 28.89615 | -72.93285 | 35126 ft | 517 kts | 54° |
| 2026-04-23 13:08 | 28.93437 | -72.86313 | 35127 ft | 517 kts | 54° |
| 2026-04-23 13:09 | 28.97221 | -72.79385 | 35132 ft | 516 kts | 54° |
| 2026-04-23 13:09 | 29.01024 | -72.72426 | 35130 ft | 516 kts | 54° |
| 2026-04-23 13:10 | 29.04830 | -72.65478 | 35129 ft | 515 kts | 54° |
| 2026-04-23 13:10 | 29.08630 | -72.58537 | 35127 ft | 514 kts | 54° |
| 2026-04-23 13:11 | 29.12419 | -72.51622 | 35130 ft | 513 kts | 54° |
| 2026-04-23 13:11 | 29.16166 | -72.44731 | 35129 ft | 512 kts | 55° |
| 2026-04-23 13:12 | 29.19936 | -72.37819 | 35127 ft | 512 kts | 54° |
| 2026-04-23 13:12 | 29.23717 | -72.30910 | 35125 ft | 510 kts | 54° |
| 2026-04-23 13:13 | 29.27482 | -72.24021 | 35129 ft | 509 kts | 55° |
| 2026-04-23 13:13 | 29.31222 | -72.17180 | 35127 ft | 508 kts | 55° |
| 2026-04-23 13:14 | 29.34983 | -72.10296 | 35128 ft | 508 kts | 55° |
| 2026-04-23 13:14 | 29.38727 | -72.03405 | 35131 ft | 507 kts | 55° |
| 2026-04-23 13:15 | 29.42443 | -71.96599 | 35127 ft | 506 kts | 55° |
| 2026-04-23 13:15 | 29.46187 | -71.89739 | 35132 ft | 508 kts | 55° |
| 2026-04-23 13:16 | 29.49941 | -71.82856 | 35126 ft | 507 kts | 55° |
| 2026-04-23 13:16 | 29.53699 | -71.75979 | 35126 ft | 507 kts | 55° |
| 2026-04-23 13:17 | 29.57454 | -71.69122 | 35127 ft | 506 kts | 55° |
| 2026-04-23 13:17 | 29.61181 | -71.62324 | 35125 ft | 506 kts | 55° |
| 2026-04-23 13:18 | 29.64939 | -71.55476 | 35126 ft | 507 kts | 55° |
| 2026-04-23 13:18 | 29.68708 | -71.48595 | 35132 ft | 508 kts | 55° |
| 2026-04-23 13:19 | 29.72478 | -71.41724 | 35125 ft | 508 kts | 54° |
| 2026-04-23 13:19 | 29.76249 | -71.34838 | 35131 ft | 508 kts | 55° |
| 2026-04-23 13:20 | 29.80006 | -71.27979 | 35129 ft | 509 kts | 54° |
| 2026-04-23 13:20 | 29.83790 | -71.21061 | 35130 ft | 510 kts | 54° |
| 2026-04-23 13:21 | 29.87557 | -71.14166 | 35125 ft | 511 kts | 54° |
| 2026-04-23 13:21 | 29.91351 | -71.07242 | 35131 ft | 511 kts | 54° |
| 2026-04-23 13:22 | 29.95169 | -71.00321 | 35125 ft | 511 kts | 54° |
| 2026-04-23 13:22 | 29.98980 | -70.93403 | 35128 ft | 510 kts | 54° |
| 2026-04-23 13:23 | 30.02781 | -70.86495 | 35132 ft | 506 kts | 54° |
| 2026-04-23 13:23 | 30.06517 | -70.79722 | 35122 ft | 501 kts | 54° |
| 2026-04-23 13:24 | 30.10276 | -70.72931 | 35134 ft | 501 kts | 54° |
| 2026-04-23 13:24 | 30.14028 | -70.66158 | 35135 ft | 504 kts | 54° |
| 2026-04-23 13:25 | 30.17823 | -70.59317 | 35138 ft | 506 kts | 54° |
| 2026-04-23 13:25 | 30.21635 | -70.52448 | 35140 ft | 506 kts | 54° |
| 2026-04-23 13:26 | 30.25443 | -70.45606 | 35137 ft | 506 kts | 54° |
| 2026-04-23 13:26 | 30.29252 | -70.38795 | 35137 ft | 506 kts | 53° |
| 2026-04-23 13:27 | 30.33108 | -70.31970 | 35136 ft | 505 kts | 53° |
| 2026-04-23 13:27 | 30.36983 | -70.25155 | 35137 ft | 506 kts | 54° |
| 2026-04-23 13:28 | 30.40646 | -70.18211 | 35140 ft | 509 kts | 56° |
| 2026-04-23 13:28 | 30.44234 | -70.11125 | 35137 ft | 509 kts | 56° |
| 2026-04-23 13:29 | 30.47837 | -70.04084 | 35140 ft | 507 kts | 56° |
| 2026-04-23 13:29 | 30.51413 | -69.97095 | 35139 ft | 506 kts | 56° |
| 2026-04-23 13:30 | 30.55021 | -69.90055 | 35139 ft | 508 kts | 56° |
| 2026-04-23 13:30 | 30.58630 | -69.82998 | 35139 ft | 508 kts | 56° |
| 2026-04-23 13:31 | 30.62242 | -69.75946 | 35134 ft | 507 kts | 56° |
| 2026-04-23 13:31 | 30.65848 | -69.68916 | 35136 ft | 506 kts | 56° |
| 2026-04-23 13:32 | 30.69425 | -69.61937 | 35142 ft | 505 kts | 56° |
| 2026-04-23 13:32 | 30.73028 | -69.54923 | 35136 ft | 504 kts | 56° |
| 2026-04-23 13:33 | 30.76658 | -69.47928 | 35134 ft | 504 kts | 56° |
| 2026-04-23 13:33 | 30.80260 | -69.40977 | 35140 ft | 504 kts | 56° |
| 2026-04-23 13:34 | 30.83902 | -69.34005 | 35149 ft | 504 kts | 55° |
| 2026-04-23 13:34 | 30.87553 | -69.27039 | 35153 ft | 504 kts | 55° |
| 2026-04-23 13:35 | 30.91220 | -69.20083 | 35152 ft | 504 kts | 56° |
| 2026-04-23 13:35 | 30.94716 | -69.13061 | 35150 ft | 504 kts | 57° |
| 2026-04-23 13:36 | 30.98219 | -69.05988 | 35150 ft | 503 kts | 57° |
| 2026-04-23 13:36 | 31.01744 | -68.98927 | 35150 ft | 504 kts | 56° |
| 2026-04-23 13:37 | 31.05269 | -68.91870 | 35150 ft | 504 kts | 56° |
| 2026-04-23 13:37 | 31.08786 | -68.84834 | 35151 ft | 503 kts | 56° |
| 2026-04-23 13:38 | 31.12314 | -68.77777 | 35152 ft | 504 kts | 56° |
| 2026-04-23 13:38 | 31.15852 | -68.70707 | 35151 ft | 503 kts | 56° |
| 2026-04-23 13:39 | 31.19387 | -68.63654 | 35151 ft | 502 kts | 56° |
| 2026-04-23 13:39 | 31.22913 | -68.56649 | 35152 ft | 501 kts | 56° |
| 2026-04-23 13:40 | 31.26459 | -68.49624 | 35151 ft | 502 kts | 56° |
| 2026-04-23 13:40 | 31.30008 | -68.42601 | 35151 ft | 502 kts | 56° |
| 2026-04-23 13:41 | 31.33539 | -68.35609 | 35156 ft | 501 kts | 56° |
| 2026-04-23 13:41 | 31.37121 | -68.28620 | 35159 ft | 500 kts | 55° |
| 2026-04-23 13:42 | 31.40117 | -68.22817 | 35159 ft | 500 kts | 56° |
| 2026-04-23 13:42 | 31.43616 | -68.15748 | 35159 ft | 501 kts | 57° |
| 2026-04-23 13:43 | 31.47086 | -68.08703 | 35160 ft | 500 kts | 55° |
| 2026-04-23 13:43 | 31.50445 | -68.01605 | 35157 ft | 504 kts | 63° |
| 2026-04-23 13:44 | 31.52874 | -67.93864 | 35161 ft | 507 kts | 70° |
| 2026-04-23 13:44 | 31.54902 | -67.85933 | 35159 ft | 508 kts | 71° |
| 2026-04-23 13:45 | 31.56945 | -67.77999 | 35159 ft | 508 kts | 70° |
| 2026-04-23 13:45 | 31.59009 | -67.70070 | 35160 ft | 508 kts | 70° |
| 2026-04-23 13:46 | 31.61073 | -67.62121 | 35159 ft | 509 kts | 70° |
| 2026-04-23 13:46 | 31.63119 | -67.54211 | 35159 ft | 510 kts | 70° |
| 2026-04-23 13:47 | 31.65117 | -67.46225 | 35158 ft | 510 kts | 73° |
| 2026-04-23 13:47 | 31.66791 | -67.38109 | 35160 ft | 511 kts | 73° |
| 2026-04-23 13:48 | 31.68757 | -67.30095 | 35162 ft | 510 kts | 70° |
| 2026-04-23 13:48 | 31.70944 | -67.22219 | 35157 ft | 511 kts | 69° |
| 2026-04-23 13:49 | 31.73101 | -67.14245 | 35162 ft | 513 kts | 70° |
| 2026-04-23 13:49 | 31.75237 | -67.06248 | 35159 ft | 513 kts | 70° |
| 2026-04-23 13:50 | 31.77389 | -66.98234 | 35161 ft | 514 kts | 70° |
| 2026-04-23 13:50 | 31.79494 | -66.90196 | 35166 ft | 514 kts | 71° |
| 2026-04-23 13:51 | 31.81558 | -66.82191 | 35170 ft | 515 kts | 70° |
| 2026-04-23 13:51 | 31.83644 | -66.74137 | 35169 ft | 515 kts | 70° |
| 2026-04-23 13:52 | 31.85732 | -66.66080 | 35168 ft | 514 kts | 71° |
| 2026-04-23 13:52 | 31.87815 | -66.58016 | 35169 ft | 514 kts | 71° |
| 2026-04-23 13:53 | 31.89888 | -66.49998 | 35170 ft | 514 kts | 71° |
| 2026-04-23 13:53 | 31.91973 | -66.41940 | 35168 ft | 514 kts | 71° |
| 2026-04-23 13:54 | 31.94062 | -66.33879 | 35016 ft | 517 kts | 70° |
| 2026-04-23 13:54 | 31.95119 | -66.29794 | 34458 ft | 521 kts | 71° |
| 2026-04-23 13:54 | 31.96168 | -66.25705 | 33797 ft | 520 kts | 71° |
| 2026-04-23 13:54 | 31.97206 | -66.21641 | 33125 ft | 518 kts | 71° |
| 2026-04-23 13:55 | 31.98240 | -66.17579 | 32448 ft | 516 kts | 71° |
| 2026-04-23 13:55 | 31.99245 | -66.13582 | 31776 ft | 513 kts | 71° |
| 2026-04-23 13:55 | 32.00241 | -66.09580 | 31076 ft | 506 kts | 71° |
| 2026-04-23 13:55 | 32.01231 | -66.05611 | 30374 ft | 499 kts | 71° |
| 2026-04-23 13:56 | 32.02213 | -66.01715 | 29687 ft | 493 kts | 70° |
| 2026-04-23 13:56 | 32.03195 | -65.97868 | 29009 ft | 488 kts | 70° |
| 2026-04-23 13:56 | 32.04169 | -65.94065 | 28337 ft | 482 kts | 70° |
| 2026-04-23 13:56 | 32.05137 | -65.90298 | 27674 ft | 476 kts | 70° |
| 2026-04-23 13:57 | 32.06086 | -65.86586 | 27020 ft | 470 kts | 70° |
| 2026-04-23 13:57 | 32.07023 | -65.82916 | 26372 ft | 465 kts | 70° |
| 2026-04-23 13:57 | 32.07951 | -65.79287 | 25734 ft | 459 kts | 70° |
| 2026-04-23 13:57 | 32.08870 | -65.75697 | 25100 ft | 455 kts | 70° |
| 2026-04-23 13:58 | 32.09770 | -65.72188 | 24480 ft | 450 kts | 70° |
| 2026-04-23 13:58 | 32.10672 | -65.68668 | 23861 ft | 445 kts | 70° |
| 2026-04-23 13:58 | 32.11565 | -65.65193 | 23245 ft | 439 kts | 70° |
| 2026-04-23 13:58 | 32.12137 | -65.62911 | 22849 ft | 436 kts | 72° |
| 2026-04-23 13:59 | 32.12276 | -65.62301 | 22741 ft | 436 kts | 73° |
| 2026-04-23 13:59 | 32.12910 | -65.58790 | 22166 ft | 432 kts | 78° |
| 2026-04-23 13:59 | 32.13322 | -65.55291 | 21571 ft | 429 kts | 81° |
| 2026-04-23 13:59 | 32.13625 | -65.51809 | 20982 ft | 424 kts | 82° |
| 2026-04-23 14:00 | 32.13820 | -65.49477 | 20585 ft | 420 kts | 82° |
| 2026-04-23 14:00 | 32.14217 | -65.44965 | 19820 ft | 414 kts | 82° |
| 2026-04-23 14:00 | 32.14522 | -65.41604 | 19257 ft | 410 kts | 82° |
| 2026-04-23 14:00 | 32.14819 | -65.38280 | 18685 ft | 406 kts | 82° |
| 2026-04-23 14:01 | 32.15112 | -65.34990 | 18127 ft | 401 kts | 82° |
| 2026-04-23 14:01 | 32.15405 | -65.31741 | 17577 ft | 396 kts | 82° |
| 2026-04-23 14:01 | 32.15699 | -65.28509 | 17033 ft | 394 kts | 82° |
| 2026-04-23 14:01 | 32.15984 | -65.25331 | 16488 ft | 391 kts | 82° |
| 2026-04-23 14:02 | 32.16269 | -65.22151 | 15952 ft | 389 kts | 82° |
| 2026-04-23 14:02 | 32.16555 | -65.18981 | 15413 ft | 385 kts | 82° |
| 2026-04-23 14:02 | 32.16840 | -65.15841 | 14863 ft | 382 kts | 82° |
| 2026-04-23 14:02 | 32.17125 | -65.12736 | 14357 ft | 379 kts | 82° |
| 2026-04-23 14:03 | 32.17409 | -65.09658 | 13819 ft | 376 kts | 82° |
| 2026-04-23 14:03 | 32.17684 | -65.06624 | 13319 ft | 374 kts | 82° |
| 2026-04-23 14:03 | 32.17929 | -65.03584 | 12803 ft | 370 kts | 83° |
| 2026-04-23 14:03 | 32.18109 | -65.00564 | 12314 ft | 367 kts | 84° |
| 2026-04-23 14:04 | 32.18293 | -64.97574 | 11846 ft | 362 kts | 83° |
| 2026-04-23 14:04 | 32.18521 | -64.94655 | 11398 ft | 350 kts | 82° |
| 2026-04-23 14:04 | 32.18766 | -64.91868 | 11175 ft | 332 kts | 82° |
| 2026-04-23 14:04 | 32.19006 | -64.89229 | 11010 ft | 314 kts | 82° |
| 2026-04-23 14:05 | 32.19235 | -64.86717 | 10816 ft | 303 kts | 82° |
| 2026-04-23 14:05 | 32.19465 | -64.84247 | 10347 ft | 303 kts | 82° |
| 2026-04-23 14:05 | 32.19696 | -64.81816 | 9875 ft | 300 kts | 82° |
| 2026-04-23 14:05 | 32.19925 | -64.79383 | 9410 ft | 297 kts | 82° |
| 2026-04-23 14:06 | 32.20151 | -64.76973 | 8949 ft | 293 kts | 82° |
| 2026-04-23 14:06 | 32.20376 | -64.74590 | 8489 ft | 290 kts | 82° |
| 2026-04-23 14:06 | 32.20599 | -64.72235 | 8042 ft | 287 kts | 83° |
| 2026-04-23 14:06 | 32.20818 | -64.69914 | 7648 ft | 281 kts | 83° |
| 2026-04-23 14:07 | 32.21037 | -64.67647 | 7240 ft | 275 kts | 83° |
| 2026-04-23 14:07 | 32.21462 | -64.63184 | 6340 ft | 271 kts | 83° |
| 2026-04-23 14:07 | 32.21670 | -64.61010 | 5933 ft | 267 kts | 83° |
| 2026-04-23 14:08 | 32.21877 | -64.58842 | 5534 ft | 264 kts | 83° |
| 2026-04-23 14:08 | 32.22078 | -64.56694 | 5052 ft | 263 kts | 83° |
| 2026-04-23 14:08 | 32.22277 | -64.54550 | 4624 ft | 261 kts | 83° |
| 2026-04-23 14:08 | 32.22616 | -64.52454 | 4197 ft | 259 kts | 70° |
| 2026-04-23 14:09 | 32.23485 | -64.50634 | 3781 ft | 252 kts | 48° |
| 2026-04-23 14:09 | 32.24801 | -64.49375 | 3320 ft | 243 kts | 27° |
| 2026-04-23 14:09 | 32.26344 | -64.48651 | 2897 ft | 234 kts | 15° |
| 2026-04-23 14:09 | 32.27863 | -64.48137 | 2699 ft | 218 kts | 14° |
| 2026-04-23 14:10 | 32.29251 | -64.47632 | 2630 ft | 200 kts | 14° |
| 2026-04-23 14:10 | 32.30584 | -64.47457 | 2541 ft | 193 kts | 350° |
| 2026-04-23 14:10 | 32.31838 | -64.48030 | 2491 ft | 195 kts | 322° |
| 2026-04-23 14:10 | 32.32699 | -64.49249 | 2396 ft | 194 kts | 295° |
| 2026-04-23 14:11 | 32.33121 | -64.50741 | 2351 ft | 192 kts | 284° |
| 2026-04-23 14:11 | 32.33466 | -64.52260 | 2221 ft | 189 kts | 285° |
| 2026-04-23 14:11 | 32.33813 | -64.53733 | 2038 ft | 181 kts | 284° |
| 2026-04-23 14:11 | 32.34113 | -64.55122 | 1920 ft | 165 kts | 282° |
| 2026-04-23 14:12 | 32.34370 | -64.56417 | 1808 ft | 156 kts | 282° |
| 2026-04-23 14:12 | 32.34603 | -64.57625 | 1613 ft | 148 kts | 281° |
| 2026-04-23 14:12 | 32.34834 | -64.58860 | 1616 ft | 157 kts | 281° |
| 2026-04-23 14:12 | 32.35066 | -64.60109 | 1565 ft | 155 kts | 281° |
| 2026-04-23 14:13 | 32.35287 | -64.61330 | 1278 ft | 149 kts | 283° |
| 2026-04-23 14:13 | 32.35472 | -64.62478 | 904 ft | 149 kts | 281° |
| 2026-04-23 14:13 | 32.35679 | -64.63682 | 530 ft | 149 kts | 282° |
| 2026-04-23 14:13 | 32.35891 | -64.64859 | 313 ft | 142 kts | 280° |
| 2026-04-23 14:14 | 32.36085 | -64.66012 | 145 ft | 142 kts | 281° |
| 2026-04-23 14:14 | 32.36277 | -64.67115 | 33 ft | 126 kts | 281° |
| 2026-04-23 14:14 | 32.36399 | -64.67845 | 29 ft | 60 kts | 281° |
| 2026-04-23 14:14 | 32.36468 | -64.68242 | 32 ft | 43 kts | 282° |
| 2026-04-23 14:15 | 32.36523 | -64.68558 | 32 ft | 32 kts | 281° |
| 2026-04-23 14:15 | 32.36562 | -64.68792 | 32 ft | 26 kts | 281° |
| 2026-04-23 14:15 | 32.36595 | -64.68974 | 30 ft | 20 kts | 283° |
| 2026-04-23 14:15 | 32.36617 | -64.69109 | 30 ft | 13 kts | 276° |
| 2026-04-23 14:16 | 32.36602 | -64.69210 | 30 ft | 13 kts | 249° |
| 2026-04-23 14:16 | 32.36571 | -64.69299 | 30 ft | 11 kts | 247° |
| 2026-04-23 14:16 | 32.36538 | -64.69392 | 30 ft | 14 kts | 248° |
| 2026-04-23 14:16 | 32.36494 | -64.69516 | 30 ft | 18 kts | 247° |
| 2026-04-23 14:17 | 32.36440 | -64.69669 | 30 ft | 20 kts | 247° |
| 2026-04-23 14:17 | 32.36415 | -64.69740 | 30 ft | 1 kts | 248° |
| 2026-04-23 14:17 | 32.36406 | -64.69766 | 30 ft | 6 kts | 248° |
| 2026-04-23 14:17 | 32.36384 | -64.69829 | 30 ft | 11 kts | 248° |
| 2026-04-23 14:18 | 32.36349 | -64.69925 | 30 ft | 15 kts | 247° |
| 2026-04-23 14:18 | 32.36319 | -64.70015 | 29 ft | 10 kts | 246° |
| 2026-04-23 14:18 | 32.36289 | -64.70096 | 29 ft | 9 kts | 246° |
| 2026-04-23 14:18 | 32.36264 | -64.70165 | 29 ft | 10 kts | 246° |
| 2026-04-23 14:19 | 32.36255 | -64.70213 | 29 ft | 3 kts | 278° |
| 2026-04-23 14:19 | 32.36268 | -64.70238 | 29 ft | 4 kts | 313° |
| 2026-04-23 14:19 | 32.36291 | -64.70256 | 29 ft | 4 kts | 330° |
| 2026-04-23 14:19 | 32.36299 | -64.70261 | 29 ft | 0 kts | 334° |
| 2026-04-23 14:20 | 32.36302 | -64.70262 | 29 ft | 1 kts | 335° |
| 2026-04-23 14:20 | 32.36309 | -64.70266 | 29 ft | 2 kts | 335° |
| 2026-04-23 14:20 | 32.36327 | -64.70279 | 29 ft | 4 kts | 321° |
| 2026-04-23 14:20 | 32.36339 | -64.70304 | 29 ft | 1 kts | 284° |
| 2026-04-23 14:21 | 32.36337 | -64.70322 | 29 ft | 2 kts | 259° |
| 2026-04-23 14:21 | 32.36333 | -64.70339 | 29 ft | 2 kts | 251° |
| 2026-04-23 14:21 | 32.36328 | -64.70353 | 29 ft | 0 kts | 249° |
| 2026-04-23 14:21 | 32.36327 | -64.70358 | 29 ft | 0 kts | 248° |